createdAt,value
2022-09-23T00:01:18.086Z,7.15
2022-09-23T00:03:48.687Z,7.35
2022-09-23T00:06:24.313Z,7.57
2022-09-23T00:08:52.607Z,7.68
2022-09-23T00:11:24.299Z,7.25
2022-09-23T00:13:57.108Z,7.13
2022-09-23T00:16:32.712Z,7.38
2022-09-23T00:19:04.278Z,8.40
2022-09-23T00:21:31.288Z,7.00
2022-09-23T00:23:58.785Z,7.00
2022-09-23T00:26:25.876Z,7.00
2022-09-23T00:28:53.216Z,6.63
2022-09-23T00:31:24.667Z,7.05
2022-09-23T00:34:01.788Z,7.47
2022-09-23T00:36:30.414Z,7.15
2022-09-23T00:38:57.891Z,7.15
2022-09-23T00:41:26.843Z,7.07
2022-09-23T00:43:58.990Z,6.50
2022-09-23T00:46:42.175Z,7.13
2022-09-23T00:49:23.615Z,7.03
2022-09-23T00:52:09.883Z,6.65
2022-09-23T00:54:37.906Z,7.78
2022-09-23T00:57:06.040Z,7.20
2022-09-23T00:59:34.884Z,7.53
2022-09-23T01:02:02.926Z,6.60
2022-09-23T01:04:30.549Z,6.90
2022-09-23T01:06:57.578Z,7.55
2022-09-23T01:09:25.375Z,7.57
2022-09-23T01:12:20.007Z,7.13
2022-09-23T01:15:18.552Z,7.30
2022-09-23T01:18:07.391Z,7.43
2022-09-23T01:20:59.336Z,7.28
2022-09-23T01:24:11.529Z,6.90
2022-09-23T01:27:22.090Z,7.43
2022-09-23T01:30:40.985Z,7.53
2022-09-23T01:33:24.247Z,7.32
2022-09-23T01:36:30.820Z,7.40
2022-09-23T01:39:16.954Z,7.80
2022-09-23T01:42:13.828Z,7.63
2022-09-23T01:44:53.075Z,7.30
2022-09-23T01:47:39.798Z,7.32
2022-09-23T01:50:35.239Z,7.55
2022-09-23T01:53:14.668Z,7.53
2022-09-23T01:55:50.415Z,7.95
2022-09-23T01:58:29.208Z,6.97
2022-09-23T02:01:05.044Z,6.53
2022-09-23T02:03:52.259Z,6.70
2022-09-23T02:06:32.135Z,6.82
2022-09-23T02:09:13.940Z,7.00
2022-09-23T02:11:48.096Z,7.00
2022-09-23T02:14:33.339Z,7.80
2022-09-23T02:17:13.041Z,6.97
2022-09-23T02:19:50.663Z,7.25
2022-09-23T02:22:26.487Z,7.18
2022-09-23T02:24:57.462Z,6.53
2022-09-23T02:27:35.151Z,7.20
2022-09-23T02:30:22.601Z,7.30
2022-09-23T02:33:46.309Z,7.50
2022-09-23T02:36:21.686Z,7.53
2022-09-23T02:38:59.150Z,7.28
2022-09-23T02:41:42.656Z,7.18
2022-09-23T02:44:16.677Z,7.38
2022-09-23T02:46:44.318Z,7.53
2022-09-23T02:49:29.503Z,7.38
2022-09-23T02:52:04.849Z,7.18
2022-09-23T02:54:33.717Z,6.72
2022-09-23T02:57:06.499Z,6.47
2022-09-23T02:59:37.089Z,7.00
2022-09-23T03:02:55.951Z,6.38
2022-09-23T03:05:31.585Z,7.25
2022-09-23T03:08:39.945Z,6.70
2022-09-23T03:11:16.996Z,7.45
2022-09-23T03:14:16.917Z,7.07
2022-09-23T03:16:56.744Z,7.90
2022-09-23T03:19:41.399Z,7.15
2022-09-23T03:22:21.335Z,6.80
2022-09-23T03:24:54.059Z,6.97
2022-09-23T03:27:29.931Z,7.43
2022-09-23T03:29:58.495Z,7.28
2022-09-23T03:32:29.250Z,7.50
2022-09-23T03:35:01.587Z,6.78
2022-09-23T03:37:44.749Z,7.07
2022-09-23T03:40:31.965Z,6.68
2022-09-23T03:43:02.555Z,6.70
2022-09-23T03:45:34.385Z,7.00
2022-09-23T03:48:01.868Z,6.43
2022-09-23T03:50:29.428Z,6.55
2022-09-23T03:52:56.727Z,6.82
2022-09-23T03:55:23.834Z,6.50
2022-09-23T03:57:50.896Z,6.68
2022-09-23T04:00:19.000Z,6.55
2022-09-23T04:02:46.012Z,6.72
2022-09-23T04:05:14.126Z,6.65
2022-09-23T04:07:44.501Z,6.03
2022-09-23T04:10:11.753Z,6.70
2022-09-23T04:12:38.723Z,6.47
2022-09-23T04:15:06.714Z,5.97
2022-09-23T04:17:34.727Z,6.03
2022-09-23T04:20:02.563Z,6.38
2022-09-23T04:22:29.689Z,6.88
2022-09-23T04:24:56.991Z,6.88
2022-09-23T04:27:24.017Z,7.10
2022-09-23T04:29:51.029Z,6.53
2022-09-23T04:32:18.063Z,6.90
2022-09-23T04:34:45.777Z,6.35
2022-09-23T04:37:12.857Z,6.68
2022-09-23T04:39:39.838Z,6.78
2022-09-23T04:42:07.122Z,6.60
2022-09-23T04:44:34.895Z,6.43
2022-09-23T04:47:02.625Z,6.03
2022-09-23T04:49:33.641Z,6.32
2022-09-23T04:52:01.722Z,7.05
2022-09-23T04:54:29.081Z,6.22
2022-09-23T04:57:03.125Z,6.63
2022-09-23T04:59:32.080Z,6.65
2022-09-23T05:02:01.226Z,7.05
2022-09-23T05:04:28.229Z,6.50
2022-09-23T05:06:57.439Z,6.35
2022-09-23T05:09:26.396Z,7.18
2022-09-23T05:11:53.528Z,6.35
2022-09-23T05:14:20.654Z,6.95
2022-09-23T05:16:47.608Z,6.53
2022-09-23T05:19:15.435Z,6.50
2022-09-23T05:21:42.346Z,6.20
2022-09-23T05:24:10.112Z,7.47
2022-09-23T05:26:37.076Z,6.50
2022-09-23T05:29:05.013Z,5.80
2022-09-23T05:31:32.007Z,5.60
2022-09-23T05:34:03.456Z,5.75
2022-09-23T05:36:37.872Z,6.50
2022-09-23T05:39:30.711Z,6.30
2022-09-23T05:41:59.987Z,6.28
2022-09-23T05:44:26.977Z,5.82
2022-09-23T05:46:54.078Z,6.35
2022-09-23T05:49:29.558Z,6.22
2022-09-23T05:52:04.792Z,5.97
2022-09-23T05:54:31.714Z,6.32
2022-09-23T05:57:00.323Z,6.10
2022-09-23T05:59:29.780Z,5.60
2022-09-23T06:01:56.937Z,5.88
2022-09-23T06:04:23.856Z,5.80
2022-09-23T06:06:50.724Z,5.72
2022-09-23T06:09:17.708Z,6.30
2022-09-23T06:11:44.793Z,5.97
2022-09-23T06:14:14.700Z,5.78
2022-09-23T06:16:43.003Z,5.65
2022-09-23T06:19:10.448Z,6.10
2022-09-23T06:21:40.339Z,5.95
2022-09-23T06:24:14.205Z,6.10
2022-09-23T06:26:42.688Z,5.65
2022-09-23T06:29:11.830Z,5.22
2022-09-23T06:31:40.686Z,5.57
2022-09-23T06:34:13.523Z,5.20
2022-09-23T06:36:45.524Z,5.28
2022-09-23T06:39:16.510Z,5.32
2022-09-23T06:41:45.427Z,6.40
2022-09-23T06:44:14.360Z,5.57
2022-09-23T06:46:41.636Z,5.00
2022-09-23T06:49:08.657Z,5.18
2022-09-23T06:51:35.638Z,7.72
2022-09-23T06:54:02.741Z,4.95
2022-09-23T06:56:31.574Z,5.78
2022-09-23T06:59:01.732Z,5.05
2022-09-23T07:01:28.753Z,6.75
2022-09-23T07:03:55.796Z,5.82
2022-09-23T07:06:22.990Z,64.43
2022-09-23T07:08:51.120Z,5.40
2022-09-23T07:11:22.282Z,4.97
2022-09-23T07:13:49.708Z,8.05
2022-09-23T07:16:16.691Z,5.47
2022-09-23T07:18:45.627Z,16.25
2022-09-23T07:21:19.305Z,6.03
2022-09-23T07:23:50.086Z,5.40
2022-09-23T07:26:19.165Z,5.18
2022-09-23T07:28:46.563Z,5.15
2022-09-23T07:31:26.076Z,5.55
2022-09-23T07:33:58.121Z,4.55
2022-09-23T07:36:27.912Z,5.20
2022-09-23T07:39:00.561Z,5.78
2022-09-23T07:41:28.942Z,5.63
2022-09-23T07:43:58.993Z,5.60
2022-09-23T07:46:33.909Z,5.85
2022-09-23T07:49:03.181Z,4.85
2022-09-23T07:51:37.205Z,4.97
2022-09-23T07:54:14.364Z,4.72
2022-09-23T07:56:42.656Z,5.25
2022-09-23T07:59:18.102Z,4.70
2022-09-23T08:01:52.616Z,5.03
2022-09-23T08:04:30.821Z,5.10
2022-09-23T08:07:04.764Z,9.73
2022-09-23T08:09:41.242Z,5.45
2022-09-23T08:12:17.554Z,4.68
2022-09-23T08:14:44.844Z,4.80
2022-09-23T08:17:14.470Z,4.45
2022-09-23T08:19:41.615Z,4.95
2022-09-23T08:22:08.599Z,4.25
2022-09-23T08:24:35.686Z,4.13
2022-09-23T08:27:02.699Z,4.90
2022-09-23T08:29:29.871Z,4.82
2022-09-23T08:31:57.031Z,5.20
2022-09-23T08:34:28.068Z,5.38
2022-09-23T08:36:55.079Z,4.70
2022-09-23T08:39:23.085Z,4.70
2022-09-23T08:42:01.995Z,5.55
2022-09-23T08:44:42.777Z,6.00
2022-09-23T08:47:23.314Z,6.80
2022-09-23T08:49:57.256Z,5.97
2022-09-23T08:52:31.900Z,5.28
2022-09-23T08:55:01.825Z,5.35
2022-09-23T08:58:23.312Z,4.85
2022-09-23T09:00:54.201Z,5.45
2022-09-23T09:03:29.724Z,5.30
2022-09-23T09:05:58.889Z,5.03
2022-09-23T09:08:35.116Z,5.82
2022-09-23T09:11:03.505Z,4.97
2022-09-23T09:13:47.416Z,4.85
2022-09-23T09:16:58.486Z,5.80
2022-09-23T09:19:55.291Z,5.38
2022-09-23T09:22:54.980Z,5.72
2022-09-23T09:25:37.092Z,5.03
2022-09-23T09:28:17.379Z,5.35
2022-09-23T09:30:48.849Z,5.38
2022-09-23T09:33:23.860Z,5.13
2022-09-23T09:36:09.006Z,4.90
2022-09-23T09:38:37.070Z,6.43
2022-09-23T09:41:18.163Z,5.05
2022-09-23T09:43:53.424Z,4.93
2022-09-23T09:47:28.349Z,6.60
2022-09-23T09:50:11.817Z,4.82
2022-09-23T09:52:40.902Z,5.40
2022-09-23T09:55:13.866Z,5.80
2022-09-23T09:58:00.120Z,5.32
2022-09-23T10:00:27.631Z,5.75
2022-09-23T10:03:14.099Z,5.40
2022-09-23T10:05:44.816Z,5.63
2022-09-23T10:08:38.998Z,5.82
2022-09-23T10:11:18.906Z,8.55
2022-09-23T10:14:09.913Z,5.50
2022-09-23T10:16:37.296Z,6.07
2022-09-23T10:19:27.852Z,6.68
2022-09-23T10:22:00.180Z,6.65
2022-09-23T10:24:36.623Z,5.65
2022-09-23T10:27:11.952Z,5.38
2022-09-23T10:29:47.824Z,5.57
2022-09-23T10:32:32.357Z,6.10
2022-09-23T10:37:49.327Z,5.38
2022-09-23T10:40:57.637Z,5.72
2022-09-23T10:44:49.238Z,5.90
2022-09-23T10:47:36.801Z,5.68
2022-09-23T10:50:19.960Z,7.00
2022-09-23T10:53:18.233Z,6.63
2022-09-23T10:56:34.257Z,5.90
2022-09-23T10:59:21.603Z,6.47
2022-09-23T11:02:06.584Z,7.20
2022-09-23T11:04:55.238Z,7.07
2022-09-23T11:08:02.392Z,6.97
2022-09-23T11:11:03.902Z,6.82
2022-09-23T11:13:55.629Z,7.43
2022-09-23T11:16:50.893Z,7.30
2022-09-23T11:19:50.863Z,7.30
2022-09-23T11:22:53.247Z,7.38
2022-09-23T11:25:42.171Z,8.90
2022-09-23T11:28:21.935Z,7.72
2022-09-23T11:31:10.158Z,7.10
2022-09-23T11:34:26.040Z,8.43
2022-09-23T11:37:05.167Z,8.00
2022-09-23T11:39:51.349Z,7.15
2022-09-23T11:42:26.162Z,7.90
2022-09-23T11:45:14.991Z,9.30
2022-09-23T11:48:21.891Z,7.78
2022-09-23T11:51:25.725Z,9.30
2022-09-23T11:54:20.922Z,9.52
2022-09-23T11:57:01.278Z,8.55
2022-09-23T11:59:55.126Z,8.93
2022-09-23T12:02:40.639Z,8.53
2022-09-23T12:05:22.715Z,8.60
2022-09-23T12:08:17.928Z,7.30
2022-09-23T12:10:57.997Z,7.50
2022-09-23T12:13:39.279Z,6.85
2022-09-23T12:16:59.146Z,7.53
2022-09-23T12:19:38.565Z,6.03
2022-09-23T12:22:24.756Z,5.55
2022-09-23T12:25:10.330Z,5.47
2022-09-23T12:27:46.619Z,6.63
2022-09-23T12:30:19.028Z,5.20
2022-09-23T12:32:47.151Z,5.78
2022-09-23T12:35:41.841Z,4.78
2022-09-23T12:41:01.537Z,5.18
2022-09-23T12:43:34.491Z,5.20
2022-09-23T12:46:27.245Z,5.00
2022-09-23T12:49:03.146Z,4.75
2022-09-23T12:51:36.267Z,5.28
2022-09-23T12:54:15.243Z,4.82
2022-09-23T12:56:59.600Z,5.15
2022-09-23T13:02:26.257Z,5.32
2022-09-23T13:05:28.152Z,7.25
2022-09-23T13:08:08.251Z,5.35
2022-09-23T13:10:46.048Z,7.70
2022-09-23T13:13:27.529Z,6.57
2022-09-23T13:15:55.163Z,6.38
2022-09-23T13:18:22.123Z,6.03
2022-09-23T13:20:54.911Z,5.25
2022-09-23T13:23:31.322Z,5.90
2022-09-23T13:26:12.596Z,5.22
2022-09-23T13:28:55.791Z,6.70
2022-09-23T13:31:23.131Z,4.75
2022-09-23T13:34:04.286Z,5.25
2022-09-23T13:36:45.148Z,3.90
2022-09-23T13:39:26.099Z,4.78
2022-09-23T13:42:02.975Z,4.25
2022-09-23T13:44:30.829Z,5.82
2022-09-23T13:47:03.261Z,4.15
2022-09-23T13:49:36.431Z,4.35
2022-09-23T13:52:04.124Z,4.50
2022-09-23T13:54:37.818Z,4.22
2022-09-23T13:57:05.906Z,3.88
2022-09-23T13:59:42.369Z,5.15
2022-09-23T14:02:20.303Z,4.35
2022-09-23T14:04:47.436Z,5.57
2022-09-23T14:07:19.174Z,3.53
2022-09-23T14:09:52.280Z,3.55
2022-09-23T14:12:22.203Z,3.80
2022-09-23T14:14:53.108Z,3.33
2022-09-23T14:17:25.661Z,2.85
2022-09-23T14:19:52.785Z,3.03
2022-09-23T14:22:30.395Z,2.80
2022-09-23T14:24:59.044Z,2.42
2022-09-23T14:27:33.448Z,2.35
2022-09-23T14:30:03.502Z,2.60
2022-09-23T14:32:32.252Z,2.20
2022-09-23T14:35:05.417Z,2.65
2022-09-23T14:37:56.697Z,2.30
2022-09-23T14:40:31.817Z,2.67
2022-09-23T14:43:06.297Z,4.35
2022-09-23T14:45:40.618Z,2.20
2022-09-23T14:48:16.381Z,3.20
2022-09-23T14:51:07.656Z,2.40
2022-09-23T14:53:52.563Z,2.17
2022-09-23T14:56:22.992Z,2.10
2022-09-23T14:59:00.631Z,2.05
2022-09-23T15:01:31.446Z,2.25
2022-09-23T15:04:17.478Z,2.55
2022-09-23T15:06:58.496Z,2.40
2022-09-23T15:09:39.397Z,2.30
2022-09-23T15:12:14.640Z,2.40
2022-09-23T15:14:49.412Z,2.78
2022-09-23T15:17:34.648Z,2.30
2022-09-23T15:20:20.304Z,2.53
2022-09-23T15:22:54.059Z,2.55
2022-09-23T15:25:31.121Z,2.70
2022-09-23T15:28:00.891Z,2.40
2022-09-23T15:30:28.677Z,2.97
2022-09-23T15:32:56.056Z,2.80
2022-09-23T15:35:26.612Z,2.75
2022-09-23T15:37:58.820Z,3.25
2022-09-23T15:40:32.652Z,2.78
2022-09-23T15:43:20.930Z,2.80
2022-09-23T15:45:57.133Z,3.03
2022-09-23T15:48:39.333Z,2.83
2022-09-23T15:51:09.752Z,2.45
2022-09-23T15:53:38.800Z,4.20
2022-09-23T15:56:13.308Z,3.00
2022-09-23T15:58:40.293Z,3.00
2022-09-23T16:01:25.224Z,3.13
2022-09-23T16:03:52.383Z,2.97
2022-09-23T16:06:20.277Z,2.90
2022-09-23T16:08:48.921Z,3.30
2022-09-23T16:11:25.747Z,3.20
2022-09-23T16:13:54.857Z,3.85
2022-09-23T16:16:22.056Z,3.30
2022-09-23T16:18:51.389Z,3.97
2022-09-23T16:21:23.924Z,3.85
2022-09-23T16:23:53.386Z,3.60
2022-09-23T16:26:29.578Z,4.20
2022-09-23T16:28:58.956Z,4.03
2022-09-23T16:31:31.414Z,4.00
2022-09-23T16:34:02.105Z,3.97
2022-09-23T16:36:39.241Z,4.07
2022-09-23T16:39:11.458Z,4.18
2022-09-23T16:41:38.645Z,3.72
2022-09-23T16:44:09.302Z,4.10
2022-09-23T16:46:36.755Z,4.28
2022-09-23T16:49:04.954Z,4.13
2022-09-23T16:51:40.419Z,4.30
2022-09-23T16:54:13.216Z,4.00
2022-09-23T16:56:45.215Z,4.85
2022-09-23T16:59:14.517Z,4.32
2022-09-23T17:02:00.871Z,4.18
2022-09-23T17:04:28.274Z,4.50
2022-09-23T17:06:56.041Z,4.18
2022-09-23T17:09:32.197Z,5.00
2022-09-23T17:12:13.743Z,4.40
2022-09-23T17:14:41.750Z,4.90
2022-09-23T17:17:09.759Z,4.53
2022-09-23T17:19:38.412Z,4.68
2022-09-23T17:22:05.388Z,4.35
2022-09-23T17:24:32.480Z,5.25
2022-09-23T17:26:59.483Z,4.82
2022-09-23T17:29:26.909Z,4.70
2022-09-23T17:31:54.370Z,5.03
2022-09-23T17:34:21.639Z,4.90
2022-09-23T17:36:49.609Z,4.57
2022-09-23T17:39:17.544Z,5.38
2022-09-23T17:41:45.672Z,6.97
2022-09-23T17:44:14.375Z,6.80
2022-09-23T17:46:42.106Z,6.93
2022-09-23T17:49:10.001Z,7.20
2022-09-23T17:51:37.284Z,6.63
2022-09-23T17:54:04.414Z,7.78
2022-09-23T17:56:31.475Z,8.50
2022-09-23T17:59:02.291Z,12.38
2022-09-23T18:01:29.910Z,11.15
2022-09-23T18:04:00.608Z,8.80
2022-09-23T18:06:33.630Z,10.20
2022-09-23T18:09:04.159Z,7.93
2022-09-23T18:11:36.024Z,8.15
2022-09-23T18:14:13.019Z,7.75
2022-09-23T18:16:42.074Z,7.75
2022-09-23T18:19:14.771Z,7.45
2022-09-23T18:21:52.062Z,8.20
2022-09-23T18:24:35.072Z,7.68
2022-09-23T18:27:02.273Z,8.10
2022-09-23T18:29:29.739Z,8.02
2022-09-23T18:31:56.881Z,8.68
2022-09-23T18:34:25.489Z,8.40
2022-09-23T18:36:55.933Z,8.38
2022-09-23T18:39:23.061Z,7.95
2022-09-23T18:41:50.298Z,8.80
2022-09-23T18:44:17.845Z,9.05
2022-09-23T18:46:44.854Z,9.00
2022-09-23T18:49:31.036Z,8.68
2022-09-23T18:51:58.784Z,8.45
2022-09-23T18:54:28.856Z,9.00
2022-09-23T18:56:56.774Z,8.85
2022-09-23T18:59:28.930Z,8.45
2022-09-23T19:01:57.389Z,9.32
2022-09-23T19:04:27.289Z,8.98
2022-09-23T19:06:56.594Z,8.82
2022-09-23T19:09:24.528Z,8.27
2022-09-23T19:11:52.652Z,8.32
2022-09-23T19:14:20.262Z,9.20
2022-09-23T19:16:51.013Z,9.10
2022-09-23T19:19:18.152Z,10.73
2022-09-23T19:21:45.307Z,10.20
2022-09-23T19:24:15.752Z,9.63
2022-09-23T19:26:44.028Z,8.50
2022-09-23T19:29:16.680Z,8.73
2022-09-23T19:31:44.145Z,8.65
2022-09-23T19:34:17.707Z,8.65
2022-09-23T19:36:47.192Z,8.73
2022-09-23T19:39:23.460Z,8.80
2022-09-23T19:41:52.706Z,9.20
2022-09-23T19:44:20.215Z,8.65
2022-09-23T19:46:55.040Z,9.15
2022-09-23T19:49:24.571Z,8.52
2022-09-23T19:51:55.123Z,8.73
2022-09-23T19:54:22.373Z,9.27
2022-09-23T19:56:49.916Z,9.20
2022-09-23T19:59:19.185Z,8.20
2022-09-23T20:01:48.019Z,9.65
2022-09-23T20:04:16.798Z,9.13
2022-09-23T20:06:45.827Z,8.70
2022-09-23T20:09:12.960Z,9.90
2022-09-23T20:11:42.829Z,9.55
2022-09-23T20:14:10.842Z,10.40
2022-09-23T20:16:37.974Z,12.25
2022-09-23T20:19:05.922Z,17.45
2022-09-23T20:21:33.819Z,12.75
2022-09-23T20:24:04.394Z,19.20
2022-09-23T20:26:50.268Z,13.93
2022-09-23T20:29:17.388Z,13.00
2022-09-23T20:31:44.510Z,14.00
2022-09-23T20:34:12.268Z,12.70
2022-09-23T20:36:41.606Z,11.35
2022-09-23T20:39:10.319Z,11.05
2022-09-23T20:41:39.272Z,11.68
2022-09-23T20:44:12.933Z,13.68
2022-09-23T20:46:48.240Z,12.82
2022-09-23T20:49:17.764Z,12.77
2022-09-23T20:51:47.589Z,13.95
2022-09-23T20:54:21.067Z,13.75
2022-09-23T20:56:48.226Z,12.27
2022-09-23T20:59:17.532Z,12.70
2022-09-23T21:01:45.353Z,13.68
2022-09-23T21:04:12.461Z,13.68
2022-09-23T21:06:39.752Z,13.18
2022-09-23T21:09:07.208Z,11.77
2022-09-23T21:11:35.226Z,13.10
2022-09-23T21:14:02.681Z,12.52
2022-09-23T21:16:30.542Z,12.70
2022-09-23T21:18:58.324Z,13.27
2022-09-23T21:21:26.198Z,13.13
2022-09-23T21:23:56.458Z,13.38
2022-09-23T21:26:28.178Z,13.88
2022-09-23T21:29:00.797Z,14.18
2022-09-23T21:31:35.885Z,15.15
2022-09-23T21:34:09.238Z,15.27
2022-09-23T21:36:46.266Z,16.23
2022-09-23T21:39:13.436Z,16.10
2022-09-23T21:41:40.506Z,17.00
2022-09-23T21:44:08.554Z,17.02
2022-09-23T21:46:37.010Z,16.85
2022-09-23T21:49:05.278Z,18.48
2022-09-23T21:51:40.781Z,18.75
2022-09-23T21:54:15.625Z,18.08
2022-09-23T21:56:44.715Z,17.90
2022-09-23T21:59:12.375Z,17.40
2022-09-23T22:01:44.858Z,19.95
2022-09-23T22:04:18.835Z,19.20
2022-09-23T22:06:46.690Z,20.25
2022-09-23T22:09:18.251Z,19.52
2022-09-23T22:12:04.872Z,21.23
2022-09-23T22:14:31.913Z,22.42
2022-09-23T22:17:02.701Z,21.58
2022-09-23T22:19:35.568Z,22.45
2022-09-23T22:22:09.713Z,23.42
2022-09-23T22:24:36.770Z,22.27
2022-09-23T22:27:07.371Z,22.67
2022-09-23T22:29:53.312Z,20.42
2022-09-23T22:32:36.061Z,21.20
2022-09-23T22:35:05.111Z,17.77
2022-09-23T22:37:34.744Z,15.90
2022-09-23T22:40:15.260Z,14.32
2022-09-23T22:42:43.608Z,14.25
2022-09-23T22:45:13.570Z,13.73
2022-09-23T22:47:44.954Z,13.45
2022-09-23T22:50:14.190Z,12.85
2022-09-23T22:52:41.403Z,12.35
2022-09-23T22:55:14.399Z,12.88
2022-09-23T22:57:41.546Z,12.18
2022-09-23T23:00:09.938Z,12.48
2022-09-23T23:02:36.978Z,12.82
2022-09-23T23:05:04.263Z,13.02
2022-09-23T23:07:32.083Z,11.40
2022-09-23T23:09:59.057Z,12.43
2022-09-23T23:12:26.069Z,11.52
2022-09-23T23:14:53.109Z,12.85
2022-09-23T23:17:20.144Z,13.13
2022-09-23T23:19:47.444Z,12.63
2022-09-23T23:22:14.498Z,12.18
2022-09-23T23:24:41.564Z,13.07
2022-09-23T23:27:09.659Z,12.43
2022-09-23T23:29:36.676Z,11.50
2022-09-23T23:32:05.926Z,11.02
2022-09-23T23:34:32.870Z,11.52
2022-09-23T23:37:00.248Z,11.77
2022-09-23T23:39:27.454Z,12.55
2022-09-23T23:41:57.212Z,11.88
2022-09-23T23:44:26.518Z,10.45
2022-09-23T23:46:54.849Z,12.30
2022-09-23T23:49:22.300Z,11.15
2022-09-23T23:51:49.601Z,11.88
2022-09-23T23:54:17.788Z,12.05
2022-09-23T23:56:45.141Z,11.73
2022-09-23T23:59:12.597Z,10.90
